Time;durP1;ratioP1;P1;durP2;ratioP2;P2;SDS_P1;SDS_P2;PMS_P1;PMS_P2;Temp;Humidity;BMP_temperature;BMP_pressure;BME280_temperature;BME280_humidity;BME280_pressure;Samples;Min_cycle;Max_cycle;Signal;HPM_P1;HPM_P2
2023/07/19 00:00:51;;;;;;;;;2.67;2.33;;;;;;;;5069804;28;8821;-56
2023/07/19 00:03:17;;;;;;;;;3.00;3.00;;;;;;;;5070857;28;8889;-57
2023/07/19 00:05:42;;;;;;;;;3.33;3.00;;;;;;;;5071532;28;8816;-57
2023/07/19 00:08:07;;;;;;;;;3.33;3.33;;;;;;;;5069252;28;9143;-57
2023/07/19 00:10:32;;;;;;;;;4.00;4.00;;;;;;;;5067257;28;8799;-57
2023/07/19 00:12:58;;;;;;;;;3.00;3.00;;;;;;;;5071423;28;8836;-58
2023/07/19 00:15:23;;;;;;;;;3.33;3.33;;;;;;;;5071271;28;8800;-59
2023/07/19 00:17:49;;;;;;;;;3.33;3.33;;;;;;;;5070819;28;8901;-59
2023/07/19 00:20:14;;;;;;;;;4.00;4.00;;;;;;;;5071381;28;8848;-59
2023/07/19 00:22:40;;;;;;;;;4.67;4.00;;;;;;;;5064149;28;8797;-57
2023/07/19 00:25:05;;;;;;;;;3.00;3.00;;;;;;;;5071425;28;9031;-59
2023/07/19 00:27:31;;;;;;;;;4.00;3.33;;;;;;;;5069488;28;8839;-59
2023/07/19 00:29:56;;;;;;;;;3.00;3.00;;;;;;;;5070255;28;8840;-59
2023/07/19 00:32:21;;;;;;;;;3.00;3.00;;;;;;;;5058391;28;8808;-59
2023/07/19 00:34:46;;;;;;;;;3.67;3.67;;;;;;;;5070763;28;8797;-59
2023/07/19 00:37:12;;;;;;;;;3.00;3.00;;;;;;;;5070870;28;8846;-59
2023/07/19 00:39:37;;;;;;;;;2.33;2.00;;;;;;;;5071017;28;8823;-60
2023/07/19 00:42:03;;;;;;;;;3.67;3.67;;;;;;;;5070853;28;9542;-59
2023/07/19 00:44:28;;;;;;;;;5.33;4.00;;;;;;;;5066576;28;8820;-59
2023/07/19 00:46:53;;;;;;;;;3.00;3.00;;;;;;;;5071353;28;8808;-59
2023/07/19 00:49:19;;;;;;;;;3.67;3.67;;;;;;;;5066176;28;8858;-59
2023/07/19 00:51:44;;;;;;;;;3.00;2.67;;;;;;;;5071173;28;8828;-58
2023/07/19 00:54:09;;;;;;;;;3.00;3.00;;;;;;;;5071105;28;8897;-59
2023/07/19 00:56:35;;;;;;;;;3.00;3.00;;;;;;;;5070999;28;9566;-59
2023/07/19 00:59:01;;;;;;;;;4.00;2.33;;;;;;;;5071113;28;8866;-59
2023/07/19 01:01:27;;;;;;;;;2.67;2.67;;;;;;;;5069913;28;8807;-60
2023/07/19 01:03:52;;;;;;;;;3.00;2.67;;;;;;;;5071176;28;9041;-59
2023/07/19 01:06:18;;;;;;;;;3.67;3.33;;;;;;;;5069364;28;8824;-59
2023/07/19 01:08:44;;;;;;;;;2.00;2.00;;;;;;;;5070706;28;8926;-59
2023/07/19 01:11:09;;;;;;;;;3.00;2.33;;;;;;;;5070772;28;9197;-60
2023/07/19 01:13:34;;;;;;;;;3.33;2.33;;;;;;;;5070943;28;8836;-59
2023/07/19 01:16:02;;;;;;;;;5.00;3.00;;;;;;;;5070671;28;8840;-58
2023/07/19 01:18:27;;;;;;;;;3.00;2.00;;;;;;;;5061258;28;8901;-58
2023/07/19 01:20:52;;;;;;;;;2.67;2.67;;;;;;;;5070496;28;9799;-58
2023/07/19 01:23:18;;;;;;;;;5.00;3.67;;;;;;;;5070600;28;8840;-58
2023/07/19 01:25:43;;;;;;;;;3.00;3.00;;;;;;;;5070770;28;9496;-57
2023/07/19 01:28:08;;;;;;;;;4.00;3.00;;;;;;;;5070185;28;8901;-58
2023/07/19 01:30:34;;;;;;;;;3.33;3.33;;;;;;;;5067029;28;8911;-58
2023/07/19 01:33:02;;;;;;;;;2.33;2.00;;;;;;;;5070297;28;8863;-58
2023/07/19 01:35:27;;;;;;;;;2.00;2.00;;;;;;;;5069428;28;9542;-58
2023/07/19 01:37:52;;;;;;;;;3.00;3.00;;;;;;;;5069355;28;9056;-58
2023/07/19 01:40:17;;;;;;;;;3.00;3.00;;;;;;;;5070502;28;8837;-58
2023/07/19 01:42:42;;;;;;;;;2.67;2.33;;;;;;;;5070205;28;8817;-57
2023/07/19 01:45:08;;;;;;;;;3.00;3.00;;;;;;;;5068467;28;8809;-57
2023/07/19 01:47:34;;;;;;;;;2.00;2.00;;;;;;;;5069977;28;8805;-58
2023/07/19 01:49:59;;;;;;;;;2.00;2.00;;;;;;;;5070340;28;8808;-58
2023/07/19 01:52:24;;;;;;;;;3.00;2.67;;;;;;;;5069443;28;8812;-58
2023/07/19 01:54:49;;;;;;;;;3.00;3.00;;;;;;;;5069705;28;8820;-58
2023/07/19 01:57:15;;;;;;;;;3.00;3.00;;;;;;;;5070234;28;8824;-58
2023/07/19 01:59:40;;;;;;;;;2.00;2.00;;;;;;;;5070264;28;8797;-59
2023/07/19 02:02:05;;;;;;;;;4.00;3.67;;;;;;;;5070126;28;8840;-58
2023/07/19 02:04:30;;;;;;;;;2.67;2.67;;;;;;;;5069872;28;8808;-58
2023/07/19 02:06:56;;;;;;;;;2.67;2.67;;;;;;;;5068190;28;8830;-59
2023/07/19 02:09:21;;;;;;;;;3.00;3.00;;;;;;;;5068024;28;8844;-59
2023/07/19 02:11:46;;;;;;;;;2.00;2.00;;;;;;;;5070289;28;8863;-58
2023/07/19 02:14:12;;;;;;;;;2.00;2.00;;;;;;;;5070103;28;8910;-59
2023/07/19 02:16:37;;;;;;;;;4.00;3.00;;;;;;;;5069950;28;8893;-59
2023/07/19 02:19:06;;;;;;;;;4.00;4.00;;;;;;;;5069995;28;8855;-58
2023/07/19 02:21:31;;;;;;;;;3.00;3.00;;;;;;;;5069264;28;8773;-58
2023/07/19 02:23:57;;;;;;;;;2.00;2.00;;;;;;;;5062537;28;9376;-58
2023/07/19 02:26:22;;;;;;;;;3.33;2.67;;;;;;;;5068770;28;8796;-59
2023/07/19 02:28:48;;;;;;;;;3.00;3.00;;;;;;;;5069643;28;9271;-58
2023/07/19 02:31:13;;;;;;;;;3.00;3.00;;;;;;;;5069620;28;8947;-58
2023/07/19 02:33:38;;;;;;;;;2.67;2.67;;;;;;;;5069870;28;8923;-58
2023/07/19 02:36:03;;;;;;;;;3.00;3.00;;;;;;;;5070073;28;8844;-57
2023/07/19 02:38:29;;;;;;;;;2.00;2.00;;;;;;;;5068961;28;8832;-59
2023/07/19 02:41:01;;;;;;;;;2.00;2.00;;;;;;;;5069652;28;8876;-57
2023/07/19 02:43:26;;;;;;;;;2.00;2.00;;;;;;;;5059383;28;8837;-58
2023/07/19 02:45:53;;;;;;;;;3.00;3.00;;;;;;;;5069434;28;8889;-58
2023/07/19 02:48:19;;;;;;;;;3.00;3.00;;;;;;;;5069265;28;8793;-58
2023/07/19 02:50:45;;;;;;;;;3.00;1.00;;;;;;;;5073213;28;9157;-58
2023/07/19 02:53:10;;;;;;;;;3.67;3.67;;;;;;;;5072902;28;8922;-62
2023/07/19 02:55:35;;;;;;;;;2.00;2.00;;;;;;;;5073140;28;9216;-58
2023/07/19 02:58:00;;;;;;;;;4.33;3.00;;;;;;;;5071715;28;8840;-58
2023/07/19 03:00:26;;;;;;;;;3.00;3.00;;;;;;;;5073011;28;9599;-58
2023/07/19 03:02:53;;;;;;;;;3.67;3.67;;;;;;;;5070490;28;8843;-56
2023/07/19 03:05:22;;;;;;;;;3.00;3.00;;;;;;;;5072763;28;8820;-56
2023/07/19 03:07:47;;;;;;;;;3.67;3.67;;;;;;;;5070565;28;8929;-56
2023/07/19 03:10:12;;;;;;;;;4.00;4.00;;;;;;;;5072032;28;8932;-56
2023/07/19 03:12:38;;;;;;;;;4.00;4.00;;;;;;;;5071531;28;8836;-57
2023/07/19 03:15:03;;;;;;;;;4.00;4.00;;;;;;;;5072768;28;8800;-57
2023/07/19 03:17:28;;;;;;;;;5.33;4.33;;;;;;;;5070080;28;8841;-58
2023/07/19 03:19:53;;;;;;;;;3.33;3.00;;;;;;;;5072441;28;8851;-56
2023/07/19 03:22:19;;;;;;;;;3.33;3.00;;;;;;;;5072865;28;9566;-57
2023/07/19 03:24:44;;;;;;;;;2.00;2.00;;;;;;;;5072681;28;8903;-56
2023/07/19 03:27:09;;;;;;;;;4.00;4.00;;;;;;;;5072818;28;8821;-56
2023/07/19 03:29:36;;;;;;;;;3.00;3.00;;;;;;;;5072444;28;8825;-56
2023/07/19 03:32:01;;;;;;;;;3.33;3.00;;;;;;;;5071172;28;8827;-55
2023/07/19 03:34:26;;;;;;;;;4.00;4.00;;;;;;;;5069266;28;9058;-55
2023/07/19 03:36:51;;;;;;;;;1.67;1.00;;;;;;;;5072540;28;8819;-56
2023/07/19 03:39:17;;;;;;;;;3.00;3.00;;;;;;;;5072491;28;8852;-56
2023/07/19 03:41:42;;;;;;;;;3.00;2.67;;;;;;;;5072515;28;8789;-57
2023/07/19 03:44:07;;;;;;;;;2.33;2.33;;;;;;;;5066049;28;8816;-56
2023/07/19 03:46:32;;;;;;;;;2.00;2.00;;;;;;;;5071774;28;8793;-55
2023/07/19 03:48:58;;;;;;;;;2.33;2.33;;;;;;;;5072048;28;9654;-55
2023/07/19 03:51:23;;;;;;;;;2.00;2.00;;;;;;;;5071092;28;8885;-56
2023/07/19 03:53:48;;;;;;;;;2.67;2.67;;;;;;;;5071911;28;8813;-54
2023/07/19 03:56:13;;;;;;;;;2.00;2.00;;;;;;;;5071973;28;8800;-55
2023/07/19 03:58:40;;;;;;;;;2.33;2.00;;;;;;;;5071940;28;8820;-54
2023/07/19 04:01:06;;;;;;;;;2.00;1.67;;;;;;;;5071168;28;8804;-54
2023/07/19 04:03:31;;;;;;;;;3.00;2.00;;;;;;;;5071607;28;9546;-53
2023/07/19 04:05:58;;;;;;;;;2.00;1.33;;;;;;;;5069573;28;8815;-55
2023/07/19 04:08:23;;;;;;;;;3.67;3.00;;;;;;;;5069512;28;9573;-56
2023/07/19 04:10:49;;;;;;;;;2.00;2.00;;;;;;;;5065833;28;9239;-55
2023/07/19 04:13:17;;;;;;;;;2.00;1.00;;;;;;;;5071614;28;8897;-54
2023/07/19 04:15:43;;;;;;;;;2.00;2.00;;;;;;;;5071809;28;8890;-54
2023/07/19 04:18:08;;;;;;;;;2.00;2.00;;;;;;;;5071291;28;9017;-54
2023/07/19 04:20:36;;;;;;;;;2.00;2.00;;;;;;;;5071788;28;8817;-56
2023/07/19 04:23:01;;;;;;;;;2.00;2.00;;;;;;;;5071447;28;8866;-55
2023/07/19 04:25:26;;;;;;;;;1.00;1.00;;;;;;;;5068634;28;8990;-57
2023/07/19 04:27:52;;;;;;;;;2.00;2.00;;;;;;;;5069290;28;8832;-55
2023/07/19 04:30:17;;;;;;;;;0.00;0.00;;;;;;;;5071706;28;8820;-54
2023/07/19 04:32:42;;;;;;;;;1.00;1.00;;;;;;;;5071001;28;8808;-56
2023/07/19 04:35:08;;;;;;;;;2.00;2.00;;;;;;;;5071608;28;8910;-56
2023/07/19 04:37:37;;;;;;;;;2.00;1.00;;;;;;;;5070107;28;8796;-54
2023/07/19 04:40:02;;;;;;;;;1.00;1.00;;;;;;;;5069424;28;9246;-55
2023/07/19 04:42:28;;;;;;;;;3.00;2.00;;;;;;;;5068295;28;9051;-56
2023/07/19 04:44:53;;;;;;;;;2.00;2.00;;;;;;;;5064680;28;8824;-57
2023/07/19 04:47:18;;;;;;;;;2.67;2.00;;;;;;;;5071260;28;8804;-55
2023/07/19 04:49:43;;;;;;;;;1.00;1.00;;;;;;;;5069778;28;8850;-56
2023/07/19 04:52:09;;;;;;;;;1.00;1.00;;;;;;;;5071220;28;8797;-55
2023/07/19 04:54:34;;;;;;;;;1.33;1.00;;;;;;;;5071092;28;8816;-55
2023/07/19 04:57:00;;;;;;;;;1.00;1.00;;;;;;;;5071251;28;8848;-57
2023/07/19 04:59:25;;;;;;;;;2.00;1.67;;;;;;;;5065941;28;8822;-56
2023/07/19 05:01:50;;;;;;;;;1.00;1.00;;;;;;;;5071859;28;8902;-55
2023/07/19 05:04:15;;;;;;;;;1.00;1.00;;;;;;;;5071353;28;8862;-55
2023/07/19 05:06:40;;;;;;;;;3.33;3.00;;;;;;;;5070749;28;8898;-56
2023/07/19 05:09:08;;;;;;;;;2.00;2.00;;;;;;;;5070325;28;9586;-55
2023/07/19 05:11:33;;;;;;;;;2.33;2.00;;;;;;;;5070308;28;8886;-55
2023/07/19 05:13:59;;;;;;;;;1.00;1.00;;;;;;;;5069369;28;9141;-56
2023/07/19 05:16:28;;;;;;;;;2.00;2.00;;;;;;;;5069108;28;8862;-56
2023/07/19 05:18:53;;;;;;;;;1.00;1.00;;;;;;;;5062305;28;8867;-56
2023/07/19 05:21:18;;;;;;;;;1.00;1.00;;;;;;;;5070715;28;9155;-55
2023/07/19 05:23:44;;;;;;;;;1.00;1.00;;;;;;;;5070961;28;8812;-55
2023/07/19 05:26:09;;;;;;;;;2.67;2.67;;;;;;;;5069069;28;8862;-55
2023/07/19 05:28:38;;;;;;;;;8.67;6.67;;;;;;;;5070401;28;8929;-55
2023/07/19 05:31:03;;;;;;;;;2.25;2.25;;;;;;;;5070634;28;8781;-56
2023/07/19 05:33:29;;;;;;;;;3.00;2.33;;;;;;;;5067615;28;8821;-56
2023/07/19 05:35:54;;;;;;;;;1.00;1.00;;;;;;;;5070344;28;8850;-56
2023/07/19 05:38:20;;;;;;;;;2.33;2.33;;;;;;;;5070323;28;8832;-56
2023/07/19 05:40:49;;;;;;;;;3.00;2.00;;;;;;;;5070417;28;8816;-57
2023/07/19 05:43:15;;;;;;;;;2.00;2.00;;;;;;;;5065222;28;8951;-56
2023/07/19 05:45:40;;;;;;;;;2.67;2.33;;;;;;;;5070053;28;8928;-57
2023/07/19 05:48:06;;;;;;;;;2.67;2.00;;;;;;;;5065274;28;8816;-56
2023/07/19 05:50:31;;;;;;;;;2.00;2.00;;;;;;;;5068760;28;8920;-56
2023/07/19 05:52:56;;;;;;;;;1.00;1.00;;;;;;;;5069830;28;8816;-56
2023/07/19 05:55:22;;;;;;;;;2.00;2.00;;;;;;;;5070263;28;8831;-57
2023/07/19 05:57:47;;;;;;;;;2.00;2.00;;;;;;;;5069897;28;9562;-55
2023/07/19 06:00:19;;;;;;;;;2.00;2.00;;;;;;;;5069148;28;8824;-56
2023/07/19 06:02:45;;;;;;;;;3.33;2.67;;;;;;;;5063682;28;8789;-56
2023/07/19 06:05:12;;;;;;;;;3.33;3.33;;;;;;;;5069273;28;9033;-57
2023/07/19 06:07:37;;;;;;;;;1.00;1.00;;;;;;;;5066586;28;8863;-56
2023/07/19 06:10:04;;;;;;;;;0.33;0.33;;;;;;;;5067292;28;8879;-55
2023/07/19 06:12:30;;;;;;;;;1.33;1.00;;;;;;;;5068305;28;8841;-56
2023/07/19 06:14:55;;;;;;;;;0.67;0.00;;;;;;;;5069632;28;9079;-55
2023/07/19 06:17:20;;;;;;;;;1.00;1.00;;;;;;;;5069888;28;8897;-56
2023/07/19 06:19:46;;;;;;;;;1.00;1.00;;;;;;;;5069534;28;9769;-56
2023/07/19 06:22:11;;;;;;;;;1.33;1.00;;;;;;;;5069921;28;8804;-56
2023/07/19 06:24:36;;;;;;;;;0.00;0.00;;;;;;;;5062953;28;8801;-64
2023/07/19 06:27:02;;;;;;;;;1.33;0.67;;;;;;;;5066967;28;8905;-66
2023/07/19 06:29:27;;;;;;;;;0.00;0.00;;;;;;;;5066208;28;8848;-65
2023/07/19 06:31:52;;;;;;;;;1.00;1.00;;;;;;;;5067754;28;8804;-65
2023/07/19 06:34:17;;;;;;;;;0.67;0.67;;;;;;;;5069802;28;8858;-65
2023/07/19 06:36:43;;;;;;;;;1.00;0.00;;;;;;;;5072528;28;8812;-67
2023/07/19 06:39:08;;;;;;;;;1.00;1.00;;;;;;;;5072315;28;8805;-66
2023/07/19 06:41:33;;;;;;;;;2.33;2.33;;;;;;;;5068530;28;8846;-66
2023/07/19 06:43:58;;;;;;;;;0.00;0.00;;;;;;;;5070686;28;8836;-67
2023/07/19 06:46:24;;;;;;;;;0.00;0.00;;;;;;;;5071112;28;8847;-65
2023/07/19 06:48:49;;;;;;;;;3.00;0.00;;;;;;;;5071058;28;9059;-65
2023/07/19 06:51:14;;;;;;;;;0.67;0.67;;;;;;;;5071279;28;8788;-65
2023/07/19 06:53:39;;;;;;;;;0.67;0.33;;;;;;;;5067035;28;8836;-63
2023/07/19 06:56:05;;;;;;;;;2.00;2.00;;;;;;;;5069447;28;8812;-64
2023/07/19 06:58:30;;;;;;;;;0.00;0.00;;;;;;;;5072488;28;8812;-65
2023/07/19 07:00:56;;;;;;;;;0.00;0.00;;;;;;;;5072233;28;8870;-64
2023/07/19 07:03:22;;;;;;;;;1.67;0.00;;;;;;;;5071928;28;8820;-65
2023/07/19 07:05:47;;;;;;;;;1.00;1.00;;;;;;;;5064451;28;10030;-65
2023/07/19 07:08:12;;;;;;;;;0.00;0.00;;;;;;;;5064552;28;8993;-65
2023/07/19 07:10:40;;;;;;;;;75.50;68.00;;;;;;;;5072257;28;8852;-65
2023/07/19 07:13:06;;;;;;;;;0.00;0.00;;;;;;;;5065821;28;8811;-63
2023/07/19 07:15:31;;;;;;;;;0.67;0.00;;;;;;;;5071754;28;8856;-63
2023/07/19 07:17:56;;;;;;;;;0.67;0.67;;;;;;;;5066389;28;8847;-63
2023/07/19 07:20:22;;;;;;;;;1.00;0.00;;;;;;;;5071278;28;8930;-63
2023/07/19 07:22:47;;;;;;;;;0.00;0.00;;;;;;;;5063720;28;8824;-64
2023/07/19 07:25:12;;;;;;;;;0.00;0.00;;;;;;;;5071935;28;8845;-63
2023/07/19 07:27:38;;;;;;;;;1.67;0.67;;;;;;;;5066930;28;8866;-63
2023/07/19 07:30:03;;;;;;;;;0.00;0.00;;;;;;;;5070963;28;8840;-65
2023/07/19 07:32:33;;;;;;;;;1.67;0.00;;;;;;;;5070211;28;8812;-64
2023/07/19 07:34:58;;;;;;;;;3.00;3.00;;;;;;;;5070420;28;8801;-62
2023/07/19 07:37:24;;;;;;;;;2.67;2.00;;;;;;;;5069786;28;9092;-62
2023/07/19 07:39:49;;;;;;;;;0.67;0.67;;;;;;;;5067559;28;8917;-62
2023/07/19 07:42:14;;;;;;;;;0.00;0.00;;;;;;;;5068767;28;8812;-62
2023/07/19 07:44:39;;;;;;;;;0.00;0.00;;;;;;;;5069134;28;8824;-62
2023/07/19 07:47:05;;;;;;;;;0.67;0.67;;;;;;;;5065462;28;8833;-62
2023/07/19 07:49:30;;;;;;;;;0.00;0.00;;;;;;;;5072461;28;8922;-61
2023/07/19 07:51:55;;;;;;;;;0.00;0.00;;;;;;;;5072329;28;8792;-62
2023/07/19 07:54:20;;;;;;;;;1.00;1.00;;;;;;;;5072432;28;8844;-62
2023/07/19 07:56:46;;;;;;;;;0.00;0.00;;;;;;;;5072156;28;8804;-63
2023/07/19 07:59:11;;;;;;;;;0.00;0.00;;;;;;;;5072440;28;8816;-63
2023/07/19 08:01:36;;;;;;;;;1.33;0.33;;;;;;;;5071648;28;8805;-63
2023/07/19 08:04:02;;;;;;;;;2.33;2.33;;;;;;;;5071026;28;9085;-63
2023/07/19 08:06:27;;;;;;;;;4.00;2.33;;;;;;;;5072230;28;8824;-63
2023/07/19 08:08:52;;;;;;;;;1.00;1.00;;;;;;;;5070114;28;8848;-62
2023/07/19 08:11:18;;;;;;;;;1.00;1.00;;;;;;;;5071962;28;8800;-62
2023/07/19 08:13:45;;;;;;;;;2.00;1.00;;;;;;;;5071845;28;8828;-63
2023/07/19 08:16:10;;;;;;;;;1.50;1.50;;;;;;;;5070686;28;8784;-63
2023/07/19 08:18:35;;;;;;;;;0.00;0.00;;;;;;;;5056645;28;8808;-63
2023/07/19 08:21:00;;;;;;;;;1.00;0.00;;;;;;;;5066864;28;8827;-64
2023/07/19 08:23:26;;;;;;;;;1.00;0.00;;;;;;;;5066315;28;9133;-62
2023/07/19 08:25:55;;;;;;;;;1.00;1.00;;;;;;;;5067866;28;8931;-64
2023/07/19 08:28:20;;;;;;;;;2.00;2.00;;;;;;;;5068268;28;8804;-61
2023/07/19 08:30:45;;;;;;;;;1.00;1.00;;;;;;;;5071412;28;8974;-62
2023/07/19 08:33:10;;;;;;;;;0.00;0.00;;;;;;;;5070818;28;8840;-62
2023/07/19 08:35:35;;;;;;;;;1.67;0.67;;;;;;;;5071318;28;8800;-62
2023/07/19 08:38:01;;;;;;;;;1.33;1.00;;;;;;;;5065332;28;8807;-63
2023/07/19 08:40:30;;;;;;;;;2.00;1.33;;;;;;;;5067827;28;8866;-63
2023/07/19 08:42:55;;;;;;;;;0.75;0.50;;;;;;;;5071152;28;8803;-63
2023/07/19 08:45:21;;;;;;;;;0.67;0.67;;;;;;;;5054919;28;8820;-64
2023/07/19 08:47:47;;;;;;;;;2.25;1.25;;;;;;;;5070648;28;8809;-63
2023/07/19 08:50:13;;;;;;;;;2.00;2.00;;;;;;;;5071104;28;8801;-63
2023/07/19 08:52:39;;;;;;;;;2.00;1.00;;;;;;;;5071113;28;9076;-63
2023/07/19 08:55:04;;;;;;;;;2.00;2.00;;;;;;;;5071375;28;8820;-64
2023/07/19 08:57:37;;;;;;;;;4.67;3.00;;;;;;;;5070169;28;9574;-62
2023/07/19 09:00:03;;;;;;;;;2.00;2.00;;;;;;;;5070889;28;8917;-63
2023/07/19 09:02:28;;;;;;;;;2.00;1.67;;;;;;;;5070714;28;9219;-63
2023/07/19 09:05:09;;;;;;;;;1.67;1.67;;;;;;;;5071057;28;8804;-63
2023/07/19 09:07:36;;;;;;;;;2.33;2.00;;;;;;;;5070493;28;8812;-62
2023/07/19 09:10:01;;;;;;;;;1.00;0.00;;;;;;;;5069861;28;8985;-63
2023/07/19 09:12:39;;;;;;;;;4.00;3.00;;;;;;;;5070817;28;9160;-63
2023/07/19 09:15:05;;;;;;;;;3.67;3.67;;;;;;;;5071085;28;8789;-63
2023/07/19 09:17:34;;;;;;;;;2.00;2.00;;;;;;;;5070551;28;9061;-63
2023/07/19 09:19:59;;;;;;;;;2.33;2.00;;;;;;;;5069631;28;10550;-63
2023/07/19 09:22:26;;;;;;;;;1.00;1.00;;;;;;;;5070861;28;9036;-62
2023/07/19 09:24:53;;;;;;;;;3.67;3.67;;;;;;;;5067073;28;8981;-63
2023/07/19 09:27:25;;;;;;;;;1.67;1.67;;;;;;;;5060980;28;9029;-63
2023/07/19 09:29:50;;;;;;;;;12.33;12.33;;;;;;;;5070237;28;9218;-63
2023/07/19 09:32:15;;;;;;;;;1.00;1.00;;;;;;;;5070485;28;9364;-62
2023/07/19 09:34:41;;;;;;;;;1.00;1.00;;;;;;;;5070301;28;8821;-62
2023/07/19 09:37:06;;;;;;;;;3.00;2.00;;;;;;;;5070534;28;8800;-65
2023/07/19 09:39:34;;;;;;;;;2.67;2.00;;;;;;;;5070334;28;8951;-63
2023/07/19 09:41:59;;;;;;;;;1.00;1.00;;;;;;;;5064622;28;8803;-62
2023/07/19 09:44:25;;;;;;;;;1.00;0.67;;;;;;;;5053760;28;9052;-62
2023/07/19 09:46:51;;;;;;;;;1.00;0.67;;;;;;;;5063737;28;9578;-62
2023/07/19 09:49:17;;;;;;;;;3.00;2.00;;;;;;;;5070163;28;8933;-63
2023/07/19 09:51:42;;;;;;;;;1.00;1.00;;;;;;;;5068778;28;9286;-62
2023/07/19 09:54:14;;;;;;;;;1.00;1.00;;;;;;;;5070347;28;8899;-62
2023/07/19 09:56:41;;;;;;;;;3.00;2.00;;;;;;;;5070105;28;8797;-62
2023/07/19 09:59:08;;;;;;;;;1.33;1.33;;;;;;;;5067879;28;9166;-62
2023/07/19 10:01:34;;;;;;;;;5.00;3.33;;;;;;;;5069979;28;9107;-63
2023/07/19 10:04:20;;;;;;;;;4.00;3.00;;;;;;;;5070047;28;9165;-63
2023/07/19 10:06:46;;;;;;;;;2.00;2.00;;;;;;;;5070126;28;8801;-64
2023/07/19 10:09:23;;;;;;;;;3.00;2.00;;;;;;;;5062608;28;9136;-64
2023/07/19 10:13:14;;;;;;;;;;;;;;;;;;1924647;28;176153915;-63
2023/07/19 10:21:35;;;;;;;;;0.50;0.50;;;;;;;;652340;28;191631466;-63
2023/07/19 10:31:31;;;;;;;;;2.00;2.00;;;;;;;;2;315092894;315092894;-63
2023/07/19 10:39:48;;;;;;;;;1.00;1.00;;;;;;;;2;261076673;261076673;-63
2023/07/19 10:48:10;;;;;;;;;5.50;5.50;;;;;;;;2;315095532;315095532;-62
2023/07/19 10:50:35;;;;;;;;;5.25;4.00;;;;;;;;2121861;28;59499256;-63
2023/07/19 11:00:04;;;;;;;;;;;;;;;;;;1028162;28;279080362;-63
2023/07/19 11:03:30;;;;;;;;;1.50;1.50;;;;;;;;173898;28;140587986;-63
2023/07/19 11:05:57;;;;;;;;;4.00;4.00;;;;;;;;5043913;28;32467;-63
2023/07/19 11:08:54;;;;;;;;;;;;;;;;;;3567198;28;75079055;-64
2023/07/19 11:15:46;;;;;;;;;3.50;3.50;;;;;;;;170788;28;221934445;-63
2023/07/19 11:18:11;;;;;;;;;5.75;5.25;;;;;;;;2730297;28;56620062;-66
2023/07/19 11:20:40;;;;;;;;;3.00;3.00;;;;;;;;4488742;28;20287715;-64
2023/07/19 11:23:09;;;;;;;;;4.00;4.00;;;;;;;;5039301;28;31975;-62
2023/07/19 11:25:34;;;;;;;;;4.00;3.33;;;;;;;;5051824;28;50949;-63
2023/07/19 11:28:00;;;;;;;;;4.33;4.33;;;;;;;;5042924;28;50838;-62
2023/07/19 11:30:35;;;;;;;;;4.00;4.00;;;;;;;;5035447;28;50873;-63
2023/07/19 11:33:01;;;;;;;;;4.25;4.25;;;;;;;;2990477;28;23347913;-63
2023/07/19 11:35:26;;;;;;;;;1.33;1.33;;;;;;;;4461420;28;16473543;-63
2023/07/19 11:37:52;;;;;;;;;1.00;0.00;;;;;;;;5027236;28;51077;-63
2023/07/19 11:40:17;;;;;;;;;4.00;3.00;;;;;;;;5027497;28;51597;-62
2023/07/19 11:42:46;;;;;;;;;6.00;5.33;;;;;;;;5033744;28;51098;-63
2023/07/19 11:45:14;;;;;;;;;6.33;6.00;;;;;;;;5038321;28;50988;-62
2023/07/19 11:47:40;;;;;;;;;2.67;2.67;;;;;;;;5025657;28;51069;-62
2023/07/19 11:50:06;;;;;;;;;3.00;3.00;;;;;;;;5043410;28;52119;-62
2023/07/19 11:52:48;;;;;;;;;3.00;2.00;;;;;;;;348509;28;150058516;-63
2023/07/19 11:55:14;;;;;;;;;3.67;3.67;;;;;;;;5049122;28;38873;-61
2023/07/19 11:57:40;;;;;;;;;2.67;2.67;;;;;;;;5050240;28;31699;-64
2023/07/19 12:00:06;;;;;;;;;4.00;4.00;;;;;;;;5050403;28;32050;-61
2023/07/19 12:02:31;;;;;;;;;2.75;2.75;;;;;;;;5049704;28;32230;-62
2023/07/19 12:04:57;;;;;;;;;2.33;2.33;;;;;;;;5050621;28;31759;-60
2023/07/19 12:07:22;;;;;;;;;5.00;5.00;;;;;;;;5050182;28;31743;-60
2023/07/19 12:09:47;;;;;;;;;2.33;2.33;;;;;;;;4932115;28;3367821;-59
2023/07/19 12:12:13;;;;;;;;;1.33;1.33;;;;;;;;5046368;28;32680;-59
2023/07/19 12:14:39;;;;;;;;;2.00;2.00;;;;;;;;5041171;28;31822;-59
2023/07/19 12:17:06;;;;;;;;;2.67;2.67;;;;;;;;5050005;28;32038;-60
2023/07/19 12:19:31;;;;;;;;;2.33;1.67;;;;;;;;5046448;28;50306;-59
2023/07/19 12:21:57;;;;;;;;;3.00;3.00;;;;;;;;5035781;28;51019;-59
2023/07/19 12:24:22;;;;;;;;;3.33;3.33;;;;;;;;5033834;28;51134;-60
2023/07/19 12:26:47;;;;;;;;;3.00;3.00;;;;;;;;5029504;28;50963;-61
2023/07/19 12:29:13;;;;;;;;;3.33;3.33;;;;;;;;5025660;28;51115;-59
2023/07/19 12:31:38;;;;;;;;;4.00;3.00;;;;;;;;4306645;28;20940442;-59
2023/07/19 12:34:03;;;;;;;;;2.00;2.00;;;;;;;;5051950;28;50907;-60
2023/07/19 12:36:28;;;;;;;;;3.33;3.00;;;;;;;;5071356;28;8915;-60
2023/07/19 12:38:55;;;;;;;;;3.67;3.33;;;;;;;;5071273;28;8848;-61
2023/07/19 12:41:21;;;;;;;;;2.00;2.00;;;;;;;;5050257;28;50946;-59
2023/07/19 12:43:46;;;;;;;;;2.00;2.00;;;;;;;;5031476;28;51059;-61
2023/07/19 12:46:12;;;;;;;;;3.00;3.00;;;;;;;;5032005;28;51286;-61
2023/07/19 12:48:38;;;;;;;;;4.00;3.33;;;;;;;;5032858;28;51699;-60
2023/07/19 12:51:06;;;;;;;;;3.67;3.00;;;;;;;;5032711;28;51127;-60
2023/07/19 12:53:32;;;;;;;;;4.00;4.00;;;;;;;;5032899;28;51028;-60
2023/07/19 12:55:57;;;;;;;;;2.00;2.00;;;;;;;;5031791;28;51315;-59
2023/07/19 12:58:22;;;;;;;;;4.00;3.00;;;;;;;;5032501;28;50918;-62
2023/07/19 13:00:47;;;;;;;;;2.67;2.33;;;;;;;;3559061;28;42346851;-59
2023/07/19 13:03:12;;;;;;;;;2.00;2.00;;;;;;;;5021566;28;51016;-59
2023/07/19 13:05:38;;;;;;;;;3.00;3.00;;;;;;;;5032724;28;51240;-59
2023/07/19 13:08:03;;;;;;;;;3.00;3.00;;;;;;;;5031347;28;51037;-61
2023/07/19 13:10:29;;;;;;;;;3.00;2.33;;;;;;;;5036928;28;51002;-60
2023/07/19 13:12:54;;;;;;;;;2.33;2.33;;;;;;;;5049637;28;31932;-59
2023/07/19 13:15:22;;;;;;;;;1.00;1.00;;;;;;;;5047935;28;31895;-60
2023/07/19 13:17:47;;;;;;;;;2.00;2.00;;;;;;;;5037277;28;31796;-59
2023/07/19 13:20:13;;;;;;;;;4.33;4.33;;;;;;;;5047378;28;31775;-60
2023/07/19 13:22:39;;;;;;;;;2.67;2.67;;;;;;;;5000630;28;1428512;-61
2023/07/19 13:25:05;;;;;;;;;6.00;5.33;;;;;;;;5047485;28;31868;-59
2023/07/19 13:27:30;;;;;;;;;7.67;5.67;;;;;;;;5049074;28;31776;-60
2023/07/19 13:29:56;;;;;;;;;5.00;5.00;;;;;;;;5048955;28;31924;-60
2023/07/19 13:32:22;;;;;;;;;4.33;4.00;;;;;;;;5049128;28;31825;-60
2023/07/19 13:34:47;;;;;;;;;4.00;3.67;;;;;;;;5047977;28;32017;-59
2023/07/19 13:37:13;;;;;;;;;4.33;3.33;;;;;;;;5049697;28;31889;-59
2023/07/19 13:39:38;;;;;;;;;5.00;3.00;;;;;;;;5049398;28;31899;-59
2023/07/19 13:42:03;;;;;;;;;4.00;3.00;;;;;;;;5049208;28;31895;-59
2023/07/19 13:44:29;;;;;;;;;3.00;3.00;;;;;;;;5041481;28;31869;-62
2023/07/19 13:46:54;;;;;;;;;3.00;3.00;;;;;;;;5036057;28;32050;-59
2023/07/19 13:49:20;;;;;;;;;3.33;3.33;;;;;;;;5035517;28;32037;-59
2023/07/19 13:51:45;;;;;;;;;5.00;4.00;;;;;;;;5048710;28;32278;-59
2023/07/19 13:54:10;;;;;;;;;2.00;2.00;;;;;;;;5042577;28;32101;-62
2023/07/19 13:56:35;;;;;;;;;5.00;3.00;;;;;;;;5043781;28;31949;-60
2023/07/19 13:59:00;;;;;;;;;4.00;4.00;;;;;;;;5048379;28;32071;-60
2023/07/19 14:01:26;;;;;;;;;2.00;2.00;;;;;;;;5043544;28;32089;-63
2023/07/19 14:03:51;;;;;;;;;3.33;3.00;;;;;;;;5047837;28;31976;-60
2023/07/19 14:06:16;;;;;;;;;43.00;37.75;;;;;;;;5048224;28;31919;-60
2023/07/19 14:08:41;;;;;;;;;25.25;24.00;;;;;;;;5043569;28;31973;-60
2023/07/19 14:11:07;;;;;;;;;3.67;3.67;;;;;;;;5048705;28;31703;-60
2023/07/19 14:13:32;;;;;;;;;6.00;5.33;;;;;;;;5048698;28;32541;-59
2023/07/19 14:15:58;;;;;;;;;3.67;3.00;;;;;;;;5048804;28;31862;-58
2023/07/19 14:18:23;;;;;;;;;4.00;4.00;;;;;;;;5048384;28;31824;-58
2023/07/19 14:20:49;;;;;;;;;4.00;3.00;;;;;;;;5048886;28;31750;-59
2023/07/19 14:23:14;;;;;;;;;3.00;3.00;;;;;;;;5048342;28;32672;-59
2023/07/19 14:25:39;;;;;;;;;2.00;2.00;;;;;;;;5045795;28;32080;-60
2023/07/19 14:28:04;;;;;;;;;2.33;2.33;;;;;;;;5048540;28;31840;-58
2023/07/19 14:30:30;;;;;;;;;2.67;2.00;;;;;;;;5048538;28;31827;-60
2023/07/19 14:32:55;;;;;;;;;3.33;3.00;;;;;;;;5048139;28;32667;-60
2023/07/19 14:35:20;;;;;;;;;4.00;2.33;;;;;;;;5048803;28;31826;-60
2023/07/19 14:37:45;;;;;;;;;4.00;4.00;;;;;;;;5048329;28;31783;-60
2023/07/19 14:40:13;;;;;;;;;2.67;2.00;;;;;;;;5041739;28;31769;-60
2023/07/19 14:42:38;;;;;;;;;3.00;2.00;;;;;;;;5041348;28;31949;-59
2023/07/19 14:45:06;;;;;;;;;3.67;3.67;;;;;;;;5032248;28;32022;-59
2023/07/19 14:47:32;;;;;;;;;3.00;3.00;;;;;;;;5038850;28;31896;-60
2023/07/19 14:49:58;;;;;;;;;6.67;6.33;;;;;;;;5050470;28;31799;-59
2023/07/19 14:52:24;;;;;;;;;2.67;2.67;;;;;;;;5051373;28;32667;-61
2023/07/19 14:54:49;;;;;;;;;6.00;6.00;;;;;;;;5051577;28;31816;-59
2023/07/19 14:57:14;;;;;;;;;4.00;3.00;;;;;;;;5045725;28;31808;-58
2023/07/19 14:59:39;;;;;;;;;3.00;3.00;;;;;;;;5045807;28;31768;-60
2023/07/19 15:02:05;;;;;;;;;3.33;3.33;;;;;;;;5051399;28;32906;-59
2023/07/19 15:04:30;;;;;;;;;3.00;3.00;;;;;;;;5050530;28;31904;-60
2023/07/19 15:06:55;;;;;;;;;3.67;3.67;;;;;;;;5051529;28;31774;-60
2023/07/19 15:09:20;;;;;;;;;2.33;2.33;;;;;;;;5051319;28;31781;-59
2023/07/19 15:11:47;;;;;;;;;2.00;2.00;;;;;;;;5051756;28;32705;-60
2023/07/19 15:14:12;;;;;;;;;4.00;3.33;;;;;;;;5045423;28;31989;-59
2023/07/19 15:16:37;;;;;;;;;5.00;4.00;;;;;;;;5050946;28;31905;-59
2023/07/19 15:19:03;;;;;;;;;2.67;2.67;;;;;;;;5051654;28;31806;-58
2023/07/19 15:21:28;;;;;;;;;3.00;3.00;;;;;;;;5052468;28;32753;-60